Time;durP1;ratioP1;P1;durP2;ratioP2;P2;SDS_P1;SDS_P2;PMS_P1;PMS_P2;Temp;Humidity;BMP_temperature;BMP_pressure;BME280_temperature;BME280_humidity;BME280_pressure;Samples;Min_cycle;Max_cycle;Signal;HPM_P1;HPM_P2
2022/05/01 00:02:17;;;;;;;10.27;5.28;;;;;;;15.48;77.80;100174.50;10374702;28;20136;-77
2022/05/01 00:07:18;;;;;;;10.05;4.53;;;;;;;15.32;78.66;100174.91;10374349;28;20096;-75
2022/05/01 00:12:19;;;;;;;13.73;4.30;;;;;;;15.19;79.27;100188.25;10374097;28;20140;-75
2022/05/01 00:17:20;;;;;;;14.93;5.18;;;;;;;15.13;79.90;100164.97;10373708;28;20038;-76
2022/05/01 00:22:21;;;;;;;11.63;5.22;;;;;;;14.93;80.59;100136.34;10374059;28;20513;-76
2022/05/01 00:27:22;;;;;;;9.18;5.80;;;;;;;14.93;81.71;100136.34;10373129;28;20405;-75
2022/05/01 00:32:24;;;;;;;12.52;6.10;;;;;;;14.97;81.94;100140.25;10374914;28;20065;-75
2022/05/01 00:37:25;;;;;;;30.50;6.40;;;;;;;14.39;82.30;100041.72;10373485;28;20049;-75
2022/05/01 00:42:25;;;;;;;11.82;5.72;;;;;;;15.37;81.90;100177.78;10372631;28;20041;-74
2022/05/01 00:47:26;;;;;;;13.60;6.32;;;;;;;15.46;82.31;100192.63;10372678;28;20038;-74
2022/05/01 00:52:27;;;;;;;13.93;5.85;;;;;;;15.29;81.82;100176.13;10373319;28;20049;-75
2022/05/01 00:57:28;;;;;;;10.93;5.53;;;;;;;15.50;81.89;100217.97;10372920;28;20397;-76
2022/05/01 01:02:29;;;;;;;14.23;5.90;;;;;;;15.50;82.03;100209.13;10372956;28;20045;-75
2022/05/01 01:07:30;;;;;;;10.07;6.20;;;;;;;15.49;82.89;100239.59;10372743;28;20068;-75
2022/05/01 01:17:54;;;;;;;14.02;5.63;;;;;;;15.52;82.74;100229.31;10371928;28;20049;-74
2022/05/01 01:22:57;;;;;;;15.43;5.20;;;;;;;15.43;82.71;100206.41;10372707;28;20187;-74
2022/05/01 01:28:03;;;;;;;11.07;5.20;;;;;;;15.57;83.48;100239.41;10372184;28;20072;-75
2022/05/01 01:33:04;;;;;;;9.80;5.50;;;;;;;15.56;82.44;100256.50;10372048;28;20501;-74
2022/05/01 01:38:05;;;;;;;10.20;5.47;;;;;;;15.61;82.12;100254.03;10371524;28;20061;-74
2022/05/01 01:43:06;;;;;;;11.68;5.53;;;;;;;15.41;81.97;100245.97;10371725;28;20046;-73
2022/05/01 01:48:23;;;;;;;9.90;4.63;;;;;;;14.72;82.34;100131.94;10372250;28;20517;-74
2022/05/01 01:53:25;;;;;;;13.05;4.60;;;;;;;15.43;81.66;100251.91;10372588;28;20505;-74
2022/05/01 01:58:27;;;;;;;10.63;4.53;;;;;;;15.42;81.70;100255.63;10371037;28;20088;-74
2022/05/01 02:03:28;;;;;;;9.60;4.72;;;;;;;15.35;81.59;100270.03;10370899;28;20042;-74
2022/05/01 02:08:29;;;;;;;9.52;5.20;;;;;;;15.24;82.03;100244.66;10370625;28;20040;-74
2022/05/01 02:13:30;;;;;;;12.85;6.00;;;;;;;15.28;83.45;100257.44;10371226;28;20092;-75
2022/05/01 02:18:31;;;;;;;14.60;6.05;;;;;;;14.63;83.79;100153.69;10371327;28;20440;-75
2022/05/01 02:23:33;;;;;;;10.73;5.72;;;;;;;15.14;84.05;100245.06;10377341;28;20045;-75
2022/05/01 02:28:34;;;;;;;15.38;6.28;;;;;;;15.30;84.42;100279.47;10378354;28;20406;-75
2022/05/01 02:33:36;;;;;;;8.35;5.72;;;;;;;15.34;84.55;100276.41;10377528;28;20046;-76
2022/05/01 02:38:37;;;;;;;11.43;5.97;;;;;;;14.46;85.00;100132.63;10372263;28;20042;-76
2022/05/01 02:43:38;;;;;;;10.10;5.32;;;;;;;15.21;85.89;100277.19;10345531;28;20411;-75
2022/05/01 02:48:38;;;;;;;10.38;6.07;;;;;;;14.92;86.11;100238.97;10358856;28;20034;-75
2022/05/01 02:53:39;;;;;;;14.18;6.00;;;;;;;14.91;86.26;100255.25;10376743;28;20053;-75
2022/05/01 02:58:40;;;;;;;13.85;6.70;;;;;;;14.36;86.18;100190.97;10377771;28;20122;-75
2022/05/01 03:03:41;;;;;;;17.17;7.00;;;;;;;14.80;85.87;100288.69;10377316;28;20485;-76
2022/05/01 03:08:42;;;;;;;14.82;9.40;;;;;;;14.87;86.08;100316.34;10375883;28;20557;-75
2022/05/01 03:13:43;;;;;;;16.52;10.23;;;;;;;14.25;85.60;100236.91;10376154;28;20413;-75
2022/05/01 03:24:03;;;;;;;12.10;6.90;;;;;;;14.34;83.14;100299.88;10375555;28;20460;-75
2022/05/01 03:29:03;;;;;;;7.90;5.07;;;;;;;14.53;81.43;100330.47;10376028;28;20042;-76
2022/05/01 03:34:04;;;;;;;8.60;4.45;;;;;;;13.78;79.56;100228.50;10375495;28;20502;-76
2022/05/01 03:39:05;;;;;;;6.35;4.28;;;;;;;14.15;78.93;100301.38;10375711;28;20142;-76
2022/05/01 03:44:07;;;;;;;7.93;5.13;;;;;;;14.21;78.55;100316.63;10374499;28;20046;-75
2022/05/01 03:49:11;;;;;;;9.48;6.43;;;;;;;14.24;78.53;100351.00;10374784;28;20042;-77
2022/05/01 03:54:13;;;;;;;9.38;5.88;;;;;;;14.16;78.42;100357.28;10374736;28;20034;-77
2022/05/01 03:59:13;;;;;;;10.57;5.63;;;;;;;14.03;78.46;100342.94;10374905;28;20444;-77
2022/05/01 04:04:14;;;;;;;9.25;4.90;;;;;;;14.19;77.21;100357.91;10373957;28;20049;-77
2022/05/01 04:09:15;;;;;;;7.32;4.68;;;;;;;14.16;76.13;100362.63;10374772;28;20077;-78
2022/05/01 04:14:15;;;;;;;6.05;3.70;;;;;;;12.50;74.83;100131.31;10374216;28;20045;-78
2022/05/01 04:19:16;;;;;;;9.73;3.20;;;;;;;14.19;73.13;100374.78;10373665;28;20041;-77
2022/05/01 04:24:17;;;;;;;7.28;2.80;;;;;;;13.43;70.97;100246.22;10369684;28;20045;-77
2022/05/01 04:29:36;;;;;;;5.05;2.08;;;;;;;13.19;67.47;100232.22;10373172;28;20409;-76
2022/05/01 04:34:37;;;;;;;5.28;2.17;;;;;;;14.06;65.63;100370.13;10373235;28;20034;-81
2022/05/01 04:39:38;;;;;;;7.03;2.00;;;;;;;14.02;64.31;100368.84;10373636;28;20045;-78
2022/05/01 04:44:38;;;;;;;3.35;1.75;;;;;;;13.90;63.13;100375.69;10372708;28;20413;-76
2022/05/01 04:49:39;;;;;;;4.45;1.75;;;;;;;13.80;62.15;100367.19;10372885;28;20038;-79
2022/05/01 04:54:40;;;;;;;4.90;1.90;;;;;;;13.66;61.66;100372.34;10373015;28;20061;-78
2022/05/01 04:59:41;;;;;;;6.03;1.42;;;;;;;13.64;60.38;100376.22;10355019;28;20042;-78
2022/05/01 05:04:42;;;;;;;9.48;1.85;;;;;;;12.54;60.21;100185.88;10372448;28;20096;-78
2022/05/01 05:09:54;;;;;;;5.80;1.65;;;;;;;13.91;58.72;100422.78;10371574;28;20058;-80
2022/05/01 05:14:59;;;;;;;5.30;1.40;;;;;;;13.53;57.99;100356.19;10371979;28;20041;-78
2022/05/01 05:20:00;;;;;;;4.68;1.17;;;;;;;14.02;56.54;100429.44;10370048;28;20517;-78
2022/05/01 05:25:02;;;;;;;4.18;1.58;;;;;;;14.11;55.55;100431.81;10371757;28;20048;-80
2022/05/01 05:30:04;;;;;;;4.13;1.40;;;;;;;13.91;54.39;100380.03;10372759;28;20045;-82
2022/05/01 05:35:05;;;;;;;6.53;1.52;;;;;;;13.47;53.11;100300.91;10354368;28;20461;-85
2022/05/01 05:40:07;;;;;;;17.80;1.75;;;;;;;14.29;51.68;100410.00;10371869;28;20050;-80
2022/05/01 05:45:08;;;;;;;14.30;1.92;;;;;;;14.06;51.58;100351.44;10356208;28;20456;-79
2022/05/01 05:50:09;;;;;;;7.53;1.48;;;;;;;14.86;51.27;100432.34;10360665;28;20042;-81
2022/05/01 05:55:10;;;;;;;6.80;1.25;;;;;;;15.09;50.31;100431.28;10371630;28;20073;-80
2022/05/01 06:00:11;;;;;;;6.68;1.15;;;;;;;15.15;49.91;100411.78;10379374;28;20076;-80
2022/05/01 06:05:12;;;;;;;3.00;1.08;;;;;;;15.41;50.56;100430.66;10379407;28;20041;-81
2022/05/01 06:10:13;;;;;;;9.68;1.33;;;;;;;15.73;51.58;100431.03;10379611;28;20062;-81
2022/05/01 06:15:14;;;;;;;3.80;1.13;;;;;;;15.81;50.27;100430.88;10378423;28;20541;-78
2022/05/01 06:20:14;;;;;;;4.75;1.20;;;;;;;15.76;49.58;100403.84;10378617;28;20042;-82
2022/05/01 06:25:15;;;;;;;9.68;1.20;;;;;;;15.98;48.66;100420.66;10377745;28;20516;-78
2022/05/01 06:30:17;;;;;;;7.25;1.05;;;;;;;16.18;46.55;100421.53;10372376;28;20108;-80
2022/05/01 06:35:18;;;;;;;7.15;1.20;;;;;;;16.37;45.40;100401.13;10377064;28;20056;-76
2022/05/01 06:40:18;;;;;;;20.00;1.48;;;;;;;16.47;44.27;100418.69;10378298;28;20477;-80
2022/05/01 06:45:19;;;;;;;9.85;1.00;;;;;;;16.48;44.24;100418.44;10377026;28;20045;-83
2022/05/01 06:50:20;;;;;;;5.15;0.93;;;;;;;16.61;43.98;100404.25;10377007;28;20038;-80
2022/05/01 06:55:23;;;;;;;19.98;1.75;;;;;;;16.68;43.78;100356.78;10377552;28;20136;-78
2022/05/01 07:00:24;;;;;;;3.28;0.90;;;;;;;16.65;42.73;100375.97;10377169;28;20038;-81
2022/05/01 07:05:26;;;;;;;9.52;1.00;;;;;;;16.89;42.45;100423.66;10376180;28;20477;-81
2022/05/01 07:10:27;;;;;;;3.42;1.02;;;;;;;16.86;42.54;100383.81;10376272;28;20057;-82
2022/05/01 07:15:28;;;;;;;9.18;1.35;;;;;;;17.04;43.03;100366.25;10376776;28;20462;-78
2022/05/01 07:20:30;;;;;;;5.13;1.13;;;;;;;17.57;42.43;100349.97;10376158;28;20490;-78
2022/05/01 07:25:31;;;;;;;4.55;1.00;;;;;;;18.06;40.64;100382.63;10376129;28;20042;-80
2022/05/01 07:30:32;;;;;;;3.75;0.80;;;;;;;17.97;40.43;100403.53;10358182;28;20034;-81
2022/05/01 07:35:32;;;;;;;4.28;1.50;;;;;;;17.97;41.01;100403.53;10375677;28;20045;-78
2022/05/01 07:40:33;;;;;;;10.15;1.17;;;;;;;18.23;40.37;100381.88;10375964;28;20091;-81
2022/05/01 07:45:34;;;;;;;7.15;0.98;;;;;;;18.67;39.61;100416.94;10375394;28;20040;-79
2022/05/01 07:50:35;;;;;;;7.90;1.25;;;;;;;18.65;38.73;100406.38;10375238;28;20048;-78
2022/05/01 07:55:36;;;;;;;2.53;0.90;;;;;;;18.54;38.42;100399.03;10375210;28;20132;-78
2022/05/01 08:00:36;;;;;;;8.45;1.10;;;;;;;18.45;37.65;100406.53;10374748;28;20034;-81
2022/05/01 08:05:37;;;;;;;8.43;1.00;;;;;;;18.46;37.87;100359.78;10374599;28;20038;-81
2022/05/01 08:10:38;;;;;;;6.85;1.00;;;;;;;18.38;37.66;100257.03;10357113;28;20429;-81
2022/05/01 08:15:39;;;;;;;10.55;1.40;;;;;;;19.28;36.70;100383.06;10374953;28;20057;-79
2022/05/01 08:26:03;;;;;;;17.13;1.40;;;;;;;18.98;36.25;100338.00;10374451;28;20053;-82
2022/05/01 08:31:05;;;;;;;4.95;1.17;;;;;;;19.35;35.11;100346.94;10363888;28;20498;-83
2022/05/01 08:36:07;;;;;;;9.88;1.17;;;;;;;19.40;35.54;100359.69;10371400;28;20050;-84
2022/05/01 08:41:08;;;;;;;11.93;1.85;;;;;;;19.03;35.61;100278.94;10373259;28;20041;-78
2022/05/01 08:46:28;;;;;;;6.25;1.20;;;;;;;19.03;34.44;100268.19;10373533;28;20045;-86
2022/05/01 08:51:34;;;;;;;7.18;1.58;;;;;;;19.66;35.11;100352.38;10331094;28;20058;-82
2022/05/01 08:56:37;;;;;;;14.98;2.35;;;;;;;19.84;34.46;100341.56;10332647;28;20050;-79
2022/05/01 09:01:39;;;;;;;7.13;1.90;;;;;;;20.01;34.16;100358.72;10332251;28;20042;-80
2022/05/01 09:06:43;;;;;;;8.55;2.25;;;;;;;19.09;34.31;100156.06;10330076;28;20073;-79
2022/05/01 09:17:19;;;;;;;12.15;1.98;;;;;;;21.47;32.98;100368.06;10331337;28;20553;-77
2022/05/01 09:22:21;;;;;;;9.23;4.18;;;;;;;21.07;33.17;100363.44;10331111;28;20410;-78
2022/05/01 09:27:32;;;;;;;5.45;1.38;;;;;;;20.39;32.30;100246.88;10331032;28;20069;-77
2022/05/01 09:32:38;;;;;;;8.98;1.13;;;;;;;21.12;31.28;100347.31;10337806;28;20038;-83
2022/05/01 09:37:39;;;;;;;8.20;1.10;;;;;;;20.19;32.74;100220.28;10338497;28;20038;-80
2022/05/01 09:42:40;;;;;;;6.13;1.38;;;;;;;20.65;32.01;100285.28;10339684;28;20433;-82
2022/05/01 09:47:45;;;;;;;7.65;1.38;;;;;;;19.93;31.60;100224.25;10330332;28;20076;-80
2022/05/01 09:53:00;;;;;;;28.40;1.65;;;;;;;21.26;31.23;100323.56;10380498;28;20042;-83
2022/05/01 09:58:10;;;;;;;4.53;1.40;;;;;;;21.09;30.66;100297.31;10379542;28;20044;-85
2022/05/01 10:03:27;;;;;;;8.57;1.63;;;;;;;21.30;30.35;100320.16;10347202;28;20050;-80
2022/05/01 10:08:28;;;;;;;16.42;1.70;;;;;;;20.92;29.95;100278.31;10337680;28;20104;-80
2022/05/01 10:13:29;;;;;;;9.45;1.55;;;;;;;20.94;29.57;100264.59;10338487;28;20524;-82
2022/05/01 10:18:31;;;;;;;6.40;1.40;;;;;;;21.69;27.96;100322.28;10321581;28;20122;-80
2022/05/01 10:23:33;;;;;;;12.15;1.80;;;;;;;20.80;27.65;100166.03;10331846;28;20419;-83
2022/05/01 10:29:11;;;;;;;1025.50;687.00;;;;;;;21.79;26.83;100312.47;10335996;28;20133;-82
2022/05/01 10:34:18;;;;;;;139.27;80.13;;;;;;;21.79;27.53;100309.78;10338059;28;20034;-85
2022/05/01 10:39:21;;;;;;;321.50;163.32;;;;;;;21.74;28.52;100325.91;10333771;28;20031;-79
2022/05/01 10:44:43;;;;;;;43.70;23.90;;;;;;;20.74;29.80;100192.09;10336024;28;20101;-80
2022/05/01 10:49:46;;;;;;;48.13;28.93;;;;;;;21.00;30.42;100238.50;10331621;28;20038;-86
2022/05/01 10:54:54;;;;;;;94.67;53.60;;;;;;;21.23;30.84;100276.25;10333272;28;20046;-81
2022/05/01 11:00:12;;;;;;;23.80;9.60;;;;;;;21.09;30.80;100269.47;10316446;28;20140;-86
2022/05/01 11:05:41;;;;;;;32.47;11.90;;;;;;;21.60;31.32;100319.97;10328086;28;20050;-82
2022/05/01 11:10:44;;;;;;;45.05;13.73;;;;;;;21.04;30.54;100310.72;10335581;28;20537;-80
2022/05/01 11:15:47;;;;;;;154.07;87.95;;;;;;;20.18;31.19;100231.28;10328034;28;20053;-82
2022/05/01 11:20:48;;;;;;;96.93;47.83;;;;;;;20.06;31.47;100309.47;10316646;28;20038;-83
2022/05/01 11:25:49;;;;;;;33.60;11.32;;;;;;;19.57;32.42;100324.88;10327707;28;20441;-81
2022/05/01 11:30:50;;;;;;;23.48;10.00;;;;;;;18.91;32.94;100323.81;10331694;28;20137;-78
2022/05/01 11:35:56;;;;;;;13.93;5.88;;;;;;;18.37;33.96;100295.75;10335682;28;20047;-82
2022/05/01 11:41:00;;;;;;;23.80;8.10;;;;;;;18.34;34.42;100323.06;10326608;28;20074;-82
2022/05/01 11:46:03;;;;;;;10.05;2.63;;;;;;;18.18;33.92;100316.34;10334929;28;20046;-79
2022/05/01 11:51:04;;;;;;;78.93;40.65;;;;;;;17.79;34.38;100262.66;10334245;28;20050;-84
2022/05/01 12:06:48;;;;;;;32.08;10.55;;;;;;;17.53;36.68;100303.13;10332605;28;20077;-81
2022/05/01 12:11:48;;;;;;;15.45;6.05;;;;;;;17.36;37.34;100304.63;10327272;28;20085;-87
2022/05/01 12:16:49;;;;;;;14.27;6.88;;;;;;;17.11;38.28;100305.31;10331838;28;20044;-85
2022/05/01 12:21:59;;;;;;;79.13;37.47;;;;;;;16.01;40.10;100143.44;10334188;28;20042;-83
2022/05/01 12:27:01;;;;;;;36.20;17.13;;;;;;;16.22;40.33;100195.97;10331618;28;20038;-88
2022/05/01 12:32:14;;;;;;;16.75;7.47;;;;;;;16.78;42.45;100284.81;10332789;28;20136;-86
2022/05/01 12:37:17;;;;;;;45.20;15.53;;;;;;;16.80;43.02;100295.31;10333779;28;20406;-81
2022/05/01 12:47:42;;;;;;;30.25;10.85;;;;;;;16.19;46.03;100277.63;10332535;28;20074;-83
2022/05/01 12:52:45;;;;;;;23.75;6.45;;;;;;;16.42;45.56;100331.66;10332580;28;20040;-84
2022/05/01 12:57:51;;;;;;;9.57;2.63;;;;;;;16.40;46.12;100333.69;10332698;28;20490;-86
2022/05/01 13:02:58;;;;;;;7.25;1.80;;;;;;;15.50;45.97;100187.72;10332543;28;20040;-77
2022/05/01 13:07:59;;;;;;;15.70;4.68;;;;;;;15.78;45.85;100275.94;10331565;28;20050;-84
2022/05/01 13:13:00;;;;;;;5.47;2.50;;;;;;;15.18;45.45;100184.75;10370183;28;20057;-80
2022/05/01 13:18:03;;;;;;;19.90;3.00;;;;;;;15.82;44.84;100277.16;10372593;28;20061;-80
2022/05/01 13:23:04;;;;;;;7.50;1.60;;;;;;;15.62;43.93;100214.72;10371159;28;20045;-83
2022/05/01 13:28:05;;;;;;;11.00;2.83;;;;;;;16.45;43.30;100325.03;10372329;28;20049;-85
2022/05/01 13:33:06;;;;;;;5.78;1.95;;;;;;;16.47;42.51;100322.16;10372102;28;20064;-79
2022/05/01 13:38:07;;;;;;;6.80;2.17;;;;;;;16.29;42.71;100296.78;10371583;28;20125;-79
2022/05/01 13:48:27;;;;;;;8.50;2.97;;;;;;;16.09;42.43;100309.34;10363074;28;20052;-86
2022/05/01 13:53:28;;;;;;;5.07;2.53;;;;;;;15.97;42.44;100287.69;10352617;28;20049;-82
2022/05/01 13:58:43;;;;;;;9.50;1.20;;;;;;;16.08;42.16;100300.50;10372447;28;20046;-85
2022/05/01 14:03:45;;;;;;;5.90;1.63;;;;;;;14.75;42.23;100093.28;10371522;28;20046;-84
2022/05/01 14:08:47;;;;;;;10.95;1.77;;;;;;;16.09;41.87;100296.75;10371875;28;20137;-80
2022/05/01 14:13:48;;;;;;;8.55;1.60;;;;;;;16.18;41.70;100318.84;10361142;28;20081;-84
2022/05/01 14:18:51;;;;;;;25.65;11.55;;;;;;;15.23;41.71;100160.91;10376562;28;20081;-85
2022/05/01 14:23:52;;;;;;;40.35;17.25;;;;;;;15.11;41.75;100157.16;10371144;28;20138;-79
2022/05/01 14:28:53;;;;;;;11.13;5.25;;;;;;;15.84;41.65;100293.88;10378699;28;20050;-84
2022/05/01 14:34:00;;;;;;;25.20;11.88;;;;;;;15.89;41.61;100307.47;10379633;28;20464;-86
2022/05/01 14:39:09;;;;;;;10.98;4.70;;;;;;;15.83;42.13;100292.22;10378342;28;20045;-85
2022/05/01 14:44:12;;;;;;;13.02;3.13;;;;;;;15.74;41.88;100278.19;10378347;28;20371;-84
2022/05/01 14:49:21;;;;;;;12.25;2.78;;;;;;;15.85;41.67;100287.47;10377645;28;20072;-85
2022/05/01 14:54:22;;;;;;;10.70;3.05;;;;;;;15.61;41.67;100247.84;10377741;28;20053;-86
2022/05/01 15:10:17;;;;;;;4.35;1.77;;;;;;;14.62;41.24;100096.72;10370731;28;20113;-84
2022/05/01 15:15:19;;;;;;;7.80;3.30;;;;;;;15.57;40.89;100270.72;10353918;28;20057;-83
2022/05/01 15:20:24;;;;;;;30.52;14.55;;;;;;;15.68;40.61;100280.88;10357157;28;20042;-84
2022/05/01 15:25:36;;;;;;;28.00;12.52;;;;;;;15.68;40.41;100300.44;10356341;28;20421;-88
2022/05/01 15:30:46;;;;;;;26.52;15.38;;;;;;;15.39;40.23;100242.66;10373482;28;20030;-83
2022/05/01 15:35:49;;;;;;;34.63;20.50;;;;;;;15.59;40.57;100301.63;10372022;28;20402;-88
2022/05/01 15:40:54;;;;;;;37.63;18.30;;;;;;;15.51;41.22;100302.59;10371932;28;20053;-83
2022/05/01 15:45:56;;;;;;;36.60;22.23;;;;;;;15.29;40.90;100280.50;10372770;28;20050;-83
2022/05/01 15:56:18;;;;;;;14.52;5.88;;;;;;;15.35;41.29;100310.19;10393916;28;20038;-84
2022/05/01 16:01:21;;;;;;;26.25;11.50;;;;;;;14.35;41.53;100174.06;10365921;28;20057;-82
2022/05/01 16:06:22;;;;;;;16.58;7.85;;;;;;;15.25;41.66;100334.63;10367749;28;20269;-86
2022/05/01 16:12:04;;;;;;;11.18;2.78;;;;;;;15.02;41.58;100282.25;10368544;28;20529;-80
2022/05/01 16:17:32;;;;;;;9.43;3.45;;;;;;;14.79;41.74;100279.03;10367408;28;20073;-80
2022/05/01 16:22:49;;;;;;;20.20;9.73;;;;;;;15.03;41.71;100301.81;10361908;28;20065;-88
2022/05/01 16:27:57;;;;;;;51.42;23.30;;;;;;;14.87;41.86;100281.56;10372878;28;20034;-89
2022/05/01 16:33:16;;;;;;;71.97;36.92;;;;;;;15.18;41.84;100342.63;10372682;28;20045;-90
2022/05/01 16:38:18;;;;;;;19.40;8.23;;;;;;;15.12;41.54;100340.75;10374076;28;20069;-90
2022/05/01 16:43:20;;;;;;;10.57;4.65;;;;;;;14.88;41.70;100312.63;10372926;28;20112;-89
2022/05/01 16:48:21;;;;;;;49.90;24.05;;;;;;;15.25;41.74;100364.06;10356992;28;20041;-87
2022/05/01 16:53:25;;;;;;;55.92;27.30;;;;;;;15.16;41.49;100354.53;10373970;28;20041;-88
2022/05/01 16:58:28;;;;;;;96.68;50.88;;;;;;;15.15;41.71;100361.75;10358663;28;20072;-88
2022/05/01 17:03:44;;;;;;;59.00;31.90;;;;;;;14.90;41.29;100325.78;10354009;28;20046;-87
2022/05/01 17:08:54;;;;;;;155.95;88.38;;;;;;;15.23;41.33;100379.50;10365238;28;20046;-88
2022/05/01 17:14:05;;;;;;;37.17;18.92;;;;;;;14.44;40.68;100252.25;10365985;28;20495;-85
2022/05/01 17:19:10;;;;;;;52.00;25.55;;;;;;;15.06;40.78;100370.97;10361676;28;20050;-78
2022/05/01 17:24:18;;;;;;;32.58;17.27;;;;;;;13.79;40.77;100159.91;10363848;28;20041;-81
2022/05/01 17:29:23;;;;;;;151.25;81.25;;;;;;;14.26;40.69;100238.56;10366875;28;20140;-85
2022/05/01 17:34:24;;;;;;;113.03;51.08;;;;;;;15.14;40.79;100380.69;10348365;28;20049;-77
2022/05/01 17:39:26;;;;;;;41.40;19.73;;;;;;;14.42;40.37;100280.19;10365855;28;20076;-85
2022/05/01 17:44:27;;;;;;;84.80;41.33;;;;;;;15.07;40.34;100385.97;10369571;28;20129;-81
2022/05/01 17:49:32;;;;;;;80.18;37.90;;;;;;;15.17;40.37;100383.78;10362466;28;20046;-80
2022/05/01 17:54:34;;;;;;;;;;;;;;;15.29;39.70;100392.09;10358201;28;20054;-79
2022/05/01 17:59:35;;;;;;;64.95;29.85;;;;;;;15.22;40.45;100396.56;10358625;28;19926;-81
2022/05/01 18:10:57;;;;;;;13.38;5.15;;;;;;;15.29;39.90;100403.63;10373388;28;20064;-79
2022/05/01 18:16:16;;;;;;;7.93;2.72;;;;;;;14.91;40.17;100347.00;10375073;28;20502;-80
2022/05/01 18:21:38;;;;;;;9.90;3.45;;;;;;;14.67;40.10;100297.47;10372990;28;20045;-81
2022/05/01 18:26:59;;;;;;;8.98;5.90;;;;;;;15.25;40.33;100399.66;10373248;28;20045;-79
2022/05/01 18:32:22;;;;;;;5.43;2.40;;;;;;;15.11;40.88;100375.75;10377253;28;20553;-81
2022/05/01 18:37:31;;;;;;;10.50;5.03;;;;;;;14.51;41.63;100274.56;10360038;28;20041;-80
2022/05/01 18:42:36;;;;;;;18.95;10.07;;;;;;;14.85;41.84;100366.50;10377543;28;20076;-78
2022/05/01 18:47:46;;;;;;;5.40;2.47;;;;;;;15.03;42.19;100392.75;10377322;28;20136;-78
2022/05/01 18:52:48;;;;;;;61.85;31.75;;;;;;;14.86;42.60;100372.69;10378255;28;20096;-78
2022/05/01 18:57:49;;;;;;;13.50;7.07;;;;;;;14.93;42.94;100390.44;10377052;28;20454;-79
2022/05/01 19:02:50;;;;;;;8.73;3.60;;;;;;;14.85;43.77;100387.91;10375989;28;20125;-77
2022/05/01 19:08:08;;;;;;;22.38;10.20;;;;;;;14.80;44.86;100390.31;10359097;28;20133;-80
2022/05/01 19:13:24;;;;;;;11.07;3.88;;;;;;;14.74;45.56;100383.09;10369982;28;20049;-80
2022/05/01 19:18:47;;;;;;;38.25;16.13;;;;;;;14.60;45.81;100377.63;10374425;28;20460;-83
2022/05/01 19:29:39;;;;;;;;;;;;;;;14.61;46.74;100373.94;10364967;28;20417;-77
2022/05/01 19:34:58;;;;;;;8.05;3.78;;;;;;;14.50;47.50;100378.94;10367126;28;19917;-81
2022/05/01 19:40:06;;;;;;;24.13;8.20;;;;;;;13.62;48.25;100226.13;10367688;28;20041;-81
2022/05/01 19:45:18;;;;;;;34.60;16.33;;;;;;;14.10;49.00;100298.44;10373482;28;20029;-83
2022/05/01 19:55:47;;;;;;;13.77;7.80;;;;;;;14.26;49.41;100350.78;10369844;28;20056;-79
2022/05/01 20:00:51;;;;;;;6.50;2.35;;;;;;;14.02;50.25;100322.63;10369797;28;20045;-77
2022/05/01 20:05:54;;;;;;;6.20;2.47;;;;;;;14.12;50.28;100323.97;10334456;28;20483;-79
2022/05/01 20:10:56;;;;;;;10.80;3.75;;;;;;;13.47;50.34;100223.50;10364107;28;20062;-79
2022/05/01 20:16:18;;;;;;;5.25;2.03;;;;;;;14.17;51.88;100342.06;10333324;28;20046;-80
2022/05/01 20:21:47;;;;;;;4.50;1.63;;;;;;;14.05;52.06;100319.56;10302545;28;20104;-78
2022/05/01 20:27:01;;;;;;;2.50;1.20;;;;;;;13.52;52.07;100233.59;10290970;28;20431;-79
2022/05/01 20:32:11;;;;;;;12.93;1.15;;;;;;;12.29;52.77;100017.53;10292427;28;20035;-77
2022/05/01 20:37:38;;;;;;;3.30;1.10;;;;;;;14.20;52.73;100325.66;10292800;28;20166;-78
2022/05/01 20:43:09;;;;;;;3.75;1.00;;;;;;;14.20;53.13;100320.31;10275532;28;20122;-81
2022/05/01 20:48:28;;;;;;;3.42;1.23;;;;;;;14.15;51.93;100307.53;10292615;28;20047;-81
2022/05/01 20:53:47;;;;;;;3.70;1.17;;;;;;;13.38;53.37;100179.28;10293182;28;20398;-81
2022/05/01 20:58:51;;;;;;;3.58;1.10;;;;;;;14.12;53.19;100299.09;10291629;28;20082;-78
2022/05/01 21:03:54;;;;;;;2.05;1.17;;;;;;;14.10;52.85;100287.75;10292462;28;20418;-81
2022/05/01 21:08:54;;;;;;;3.40;1.10;;;;;;;13.54;53.35;100208.38;10311905;28;20038;-80
2022/05/01 21:13:55;;;;;;;3.03;1.15;;;;;;;13.98;53.57;100273.28;10347612;28;20533;-80
2022/05/01 21:18:56;;;;;;;3.40;1.30;;;;;;;13.27;53.46;100153.94;10372269;28;20129;-80
2022/05/01 21:23:57;;;;;;;3.67;1.40;;;;;;;13.82;53.79;100253.84;10372677;28;20104;-82
2022/05/01 21:34:17;;;;;;;4.28;1.15;;;;;;;13.88;54.26;100260.22;10371823;28;20555;-81
2022/05/01 21:39:18;;;;;;;2.95;1.00;;;;;;;13.81;54.63;100251.34;10372563;28;20038;-80
2022/05/01 21:44:20;;;;;;;3.13;1.27;;;;;;;13.85;55.23;100250.78;10370382;28;20081;-79
2022/05/01 21:49:21;;;;;;;4.80;1.55;;;;;;;12.98;55.40;100112.16;10371912;28;20073;-81
2022/05/01 21:54:22;;;;;;;3.20;1.40;;;;;;;13.62;55.63;100208.25;10354771;28;20490;-80
2022/05/01 21:59:23;;;;;;;5.53;1.38;;;;;;;13.78;55.39;100241.03;10370991;28;20042;-79
2022/05/01 22:04:24;;;;;;;2.88;1.23;;;;;;;13.66;55.91;100225.53;10371145;28;20046;-79
2022/05/01 22:09:25;;;;;;;3.92;1.40;;;;;;;13.64;55.89;100227.59;10354159;28;20050;-79
2022/05/01 22:14:26;;;;;;;4.32;1.60;;;;;;;13.48;56.21;100209.97;10335368;28;20062;-78
2022/05/01 22:19:27;;;;;;;6.10;2.15;;;;;;;13.62;56.10;100232.28;10330642;28;20050;-79
2022/05/01 22:24:28;;;;;;;5.35;1.27;;;;;;;13.64;56.14;100230.25;10328723;28;20054;-79
2022/05/01 22:29:29;;;;;;;3.08;1.30;;;;;;;13.60;56.21;100206.78;10330024;28;20172;-79
2022/05/01 22:34:30;;;;;;;3.08;1.40;;;;;;;13.43;55.76;100191.03;10330779;28;20117;-80
2022/05/01 22:39:30;;;;;;;5.43;1.42;;;;;;;13.35;55.15;100167.16;10335103;28;20042;-80
2022/05/01 22:44:32;;;;;;;4.57;1.40;;;;;;;13.20;54.83;100148.50;10337507;28;20038;-81
2022/05/01 22:49:33;;;;;;;3.25;1.10;;;;;;;13.44;54.48;100175.84;10337774;28;20486;-80
2022/05/01 22:54:34;;;;;;;4.03;1.25;;;;;;;13.60;53.97;100207.63;10319842;28;20038;-78
2022/05/01 22:59:34;;;;;;;2.90;1.02;;;;;;;13.64;53.66;100200.91;10337213;28;20137;-79
2022/05/01 23:04:35;;;;;;;3.95;1.20;;;;;;;13.66;53.05;100196.16;10336047;28;20104;-79
2022/05/01 23:09:37;;;;;;;3.97;1.30;;;;;;;13.00;52.89;100088.81;10336022;28;20042;-79
2022/05/01 23:14:38;;;;;;;6.05;1.30;;;;;;;13.52;52.17;100188.22;10375476;28;20469;-80
2022/05/01 23:19:39;;;;;;;4.15;1.77;;;;;;;13.67;51.90;100203.19;10375122;28;20498;-80
2022/05/01 23:24:40;;;;;;;6.78;1.70;;;;;;;13.46;51.54;100182.66;10376430;28;20049;-79
2022/05/01 23:35:00;;;;;;;5.68;1.88;;;;;;;13.59;51.39;100184.63;10375902;28;20034;-79
2022/05/01 23:40:00;;;;;;;4.00;1.50;;;;;;;12.94;51.28;100074.38;10375872;28;20042;-79
2022/05/01 23:45:01;;;;;;;9.38;1.88;;;;;;;13.67;51.11;100202.31;10373586;28;20417;-82
2022/05/01 23:50:02;;;;;;;9.45;1.88;;;;;;;13.31;51.16;100144.53;10357255;28;20037;-81
2022/05/01 23:55:04;;;;;;;6.22;1.88;;;;;;;13.51;50.54;100184.75;10375227;28;20037;-78
